createdAt,value
2018-07-11T00:01:40.118Z,67.35
2018-07-11T00:04:07.762Z,67.06
2018-07-11T00:06:35.378Z,67.34
2018-07-11T00:09:04.103Z,67.28
2018-07-11T00:11:31.796Z,67.08
2018-07-11T00:13:59.339Z,66.77
2018-07-11T00:16:26.902Z,66.84
2018-07-11T00:18:54.485Z,66.67
2018-07-11T00:21:22.145Z,66.73
2018-07-11T00:23:49.770Z,66.84
2018-07-11T00:26:17.402Z,66.93
2018-07-11T00:28:45.083Z,67.45
2018-07-11T00:31:12.738Z,66.70
2018-07-11T00:33:40.318Z,66.75
2018-07-11T00:36:07.940Z,66.86
2018-07-11T00:38:35.638Z,66.92
2018-07-11T00:41:03.450Z,67.02
2018-07-11T00:43:32.874Z,67.00
2018-07-11T00:46:01.247Z,67.17
2018-07-11T00:48:28.946Z,66.98
2018-07-11T00:50:56.820Z,66.56
2018-07-11T00:53:24.460Z,66.67
2018-07-11T00:55:52.126Z,66.67
2018-07-11T00:58:30.304Z,66.52
2018-07-11T01:01:16.450Z,66.94
2018-07-11T01:03:53.406Z,67.13
2018-07-11T01:06:21.163Z,67.35
2018-07-11T01:09:03.779Z,67.33
2018-07-11T01:11:33.843Z,67.70
2018-07-11T01:14:01.485Z,67.90
2018-07-11T01:16:29.665Z,67.76
2018-07-11T01:18:59.854Z,68.15
2018-07-11T01:21:27.970Z,67.86
2018-07-11T01:23:55.603Z,68.00
2018-07-11T01:26:25.435Z,68.04
2018-07-11T01:28:53.094Z,68.17
2018-07-11T01:31:20.807Z,67.46
2018-07-11T01:33:48.331Z,67.85
2018-07-11T01:36:16.231Z,67.80
2018-07-11T01:38:43.813Z,67.93
2018-07-11T01:41:11.461Z,67.75
2018-07-11T01:43:39.225Z,67.68
2018-07-11T01:46:06.955Z,67.50
2018-07-11T01:48:34.602Z,67.80
2018-07-11T01:51:02.266Z,67.87
2018-07-11T01:53:29.918Z,68.00
2018-07-11T01:55:57.505Z,68.00
2018-07-11T01:58:25.577Z,68.11
2018-07-11T02:00:53.240Z,68.06
2018-07-11T02:03:20.974Z,67.92
2018-07-11T02:05:48.993Z,67.95
2018-07-11T02:08:16.628Z,67.98
2018-07-11T02:10:44.314Z,68.14
2018-07-11T02:13:12.243Z,67.89
2018-07-11T02:15:39.936Z,67.71
2018-07-11T02:18:07.607Z,68.10
2018-07-11T02:20:35.266Z,67.83
2018-07-11T02:23:02.938Z,67.77
2018-07-11T02:25:30.606Z,67.87
2018-07-11T02:27:58.276Z,67.85
2018-07-11T02:30:26.391Z,67.69
2018-07-11T02:32:53.995Z,68.04
2018-07-11T02:35:21.631Z,68.04
2018-07-11T02:37:49.218Z,67.96
2018-07-11T02:40:16.796Z,67.94
2018-07-11T02:42:44.390Z,67.70
2018-07-11T02:45:11.990Z,67.91
2018-07-11T02:47:41.652Z,68.04
2018-07-11T02:50:09.247Z,68.13
2018-07-11T02:52:36.884Z,68.04
2018-07-11T02:55:04.677Z,67.96
2018-07-11T02:57:32.222Z,68.01
2018-07-11T02:59:59.857Z,68.17
2018-07-11T03:02:27.466Z,68.04
2018-07-11T03:04:55.072Z,67.71
2018-07-11T03:07:22.674Z,67.79
2018-07-11T03:09:50.249Z,68.17
2018-07-11T03:12:17.801Z,68.21
2018-07-11T03:14:48.142Z,68.33
2018-07-11T03:17:15.818Z,67.98
2018-07-11T03:19:43.443Z,68.68
2018-07-11T03:22:11.323Z,68.64
2018-07-11T03:24:38.941Z,68.12
2018-07-11T03:27:06.567Z,67.46
2018-07-11T03:29:34.230Z,67.73
2018-07-11T03:32:01.828Z,67.87
2018-07-11T03:34:29.383Z,67.93
2018-07-11T03:36:56.972Z,67.95
2018-07-11T03:39:24.626Z,67.93
2018-07-11T03:41:52.213Z,67.78
2018-07-11T03:44:19.855Z,67.82
2018-07-11T03:46:47.450Z,67.60
2018-07-11T03:49:15.018Z,67.64
2018-07-11T03:51:42.623Z,67.71
2018-07-11T03:54:10.155Z,67.67
2018-07-11T03:56:37.735Z,67.65
2018-07-11T03:59:05.615Z,67.40
2018-07-11T04:01:33.174Z,67.41
2018-07-11T04:04:00.745Z,67.60
2018-07-11T04:06:28.355Z,67.30
2018-07-11T04:08:55.910Z,67.46
2018-07-11T04:11:23.443Z,67.54
2018-07-11T04:13:51.198Z,67.58
2018-07-11T04:16:18.752Z,67.33
2018-07-11T04:18:46.266Z,67.32
2018-07-11T04:21:13.810Z,67.14
2018-07-11T04:23:41.467Z,67.19
2018-07-11T04:26:09.130Z,67.29
2018-07-11T04:28:36.782Z,67.79
2018-07-11T04:31:04.435Z,67.84
2018-07-11T04:33:32.179Z,68.03
2018-07-11T04:35:59.826Z,67.96
2018-07-11T04:38:27.479Z,67.97
2018-07-11T04:40:55.109Z,67.54
2018-07-11T04:43:25.040Z,67.27
2018-07-11T04:45:52.718Z,67.44
2018-07-11T04:48:20.605Z,66.94
2018-07-11T04:50:49.390Z,66.97
2018-07-11T04:53:21.609Z,66.48
2018-07-11T04:55:51.530Z,66.10
2018-07-11T04:58:19.080Z,66.45
2018-07-11T05:00:46.634Z,66.11
2018-07-11T05:03:14.290Z,65.62
2018-07-11T05:05:41.879Z,65.44
2018-07-11T05:08:09.448Z,64.78
2018-07-11T05:10:36.991Z,65.03
2018-07-11T05:13:04.581Z,64.58
2018-07-11T05:15:32.131Z,64.37
2018-07-11T05:17:59.666Z,64.68
2018-07-11T05:20:27.231Z,64.45
2018-07-11T05:22:54.766Z,64.50
2018-07-11T05:25:22.325Z,65.03
2018-07-11T05:27:49.847Z,64.94
2018-07-11T05:30:17.416Z,64.33
2018-07-11T05:32:44.957Z,63.90
2018-07-11T05:35:12.598Z,64.06
2018-07-11T05:37:40.219Z,62.92
2018-07-11T05:40:07.795Z,62.70
2018-07-11T05:42:35.370Z,62.79
2018-07-11T05:45:02.915Z,62.74
2018-07-11T05:47:30.503Z,62.47
2018-07-11T05:49:58.039Z,62.06
2018-07-11T05:52:25.630Z,61.77
2018-07-11T05:54:53.169Z,61.43
2018-07-11T05:57:20.718Z,61.45
2018-07-11T05:59:48.274Z,61.14
2018-07-11T06:02:15.833Z,61.10
2018-07-11T06:04:43.395Z,61.20
2018-07-11T06:07:12.123Z,61.75
2018-07-11T06:09:39.694Z,61.26
2018-07-11T06:12:07.225Z,61.60
2018-07-11T06:14:34.774Z,61.55
2018-07-11T06:17:02.363Z,61.45
2018-07-11T06:19:29.913Z,61.33
2018-07-11T06:21:57.505Z,60.74
2018-07-11T06:24:25.078Z,61.25
2018-07-11T06:26:52.838Z,61.28
2018-07-11T06:29:20.390Z,61.05
2018-07-11T06:31:47.958Z,60.91
2018-07-11T06:34:15.482Z,61.15
2018-07-11T06:36:43.027Z,60.69
2018-07-11T06:39:10.583Z,60.32
2018-07-11T06:41:38.129Z,59.53
2018-07-11T06:44:05.701Z,59.63
2018-07-11T06:46:33.263Z,59.17
2018-07-11T06:49:00.871Z,58.81
2018-07-11T06:51:28.418Z,59.26
2018-07-11T06:53:55.986Z,57.22
2018-07-11T06:56:23.537Z,57.44
2018-07-11T06:58:51.079Z,57.64
2018-07-11T07:01:18.662Z,57.89
2018-07-11T07:03:46.236Z,57.71
2018-07-11T07:06:13.862Z,57.47
2018-07-11T07:08:41.410Z,57.76
2018-07-11T07:11:09.033Z,56.71
2018-07-11T07:13:36.554Z,57.07
2018-07-11T07:16:04.222Z,56.83
2018-07-11T07:18:31.783Z,56.57
2018-07-11T07:20:59.354Z,56.51
2018-07-11T07:23:26.898Z,56.11
2018-07-11T07:25:54.434Z,55.71
2018-07-11T07:28:22.047Z,55.41
2018-07-11T07:30:49.591Z,54.46
2018-07-11T07:33:17.154Z,54.57
2018-07-11T07:35:44.712Z,54.40
2018-07-11T07:38:12.337Z,55.28
2018-07-11T07:40:39.910Z,54.83
2018-07-11T07:43:07.510Z,53.28
2018-07-11T07:45:35.186Z,53.02
2018-07-11T07:48:02.795Z,52.65
2018-07-11T07:50:30.494Z,52.36
2018-07-11T07:52:58.271Z,51.08
2018-07-11T07:55:25.734Z,50.62
2018-07-11T07:57:53.342Z,50.51
2018-07-11T08:00:21.030Z,50.81
2018-07-11T08:02:48.732Z,50.09
2018-07-11T08:05:16.272Z,49.41
2018-07-11T08:07:43.810Z,50.59
2018-07-11T08:10:11.373Z,50.79
2018-07-11T08:12:38.938Z,49.64
2018-07-11T08:15:07.289Z,49.42
2018-07-11T08:17:34.995Z,49.79
2018-07-11T08:20:02.590Z,50.38
2018-07-11T08:23:43.298Z,49.66
2018-07-11T08:26:22.743Z,48.61
2018-07-11T08:29:13.030Z,48.12
2018-07-11T08:32:11.233Z,48.99
2018-07-11T08:34:52.950Z,48.08
2018-07-11T08:37:40.474Z,48.20
2018-07-11T08:44:32.990Z,47.33
2018-07-11T08:49:20.070Z,47.71
2018-07-11T08:52:23.781Z,47.08
2018-07-11T08:57:11.293Z,47.46
2018-07-11T08:59:53.514Z,47.41
2018-07-11T09:03:32.216Z,47.55
2018-07-11T09:06:13.879Z,47.08
2018-07-11T09:08:52.783Z,46.40
2018-07-11T09:11:44.543Z,45.80
2018-07-11T09:16:44.860Z,45.91
2018-07-11T09:19:53.715Z,44.78
2018-07-11T09:22:32.630Z,44.21
2018-07-11T09:25:00.152Z,42.49
2018-07-11T09:27:27.679Z,42.39
2018-07-11T09:29:55.253Z,40.79
2018-07-11T09:32:22.810Z,41.08
2018-07-11T09:34:50.486Z,39.20
2018-07-11T09:37:18.029Z,37.69
2018-07-11T09:39:45.567Z,37.66
2018-07-11T09:42:13.206Z,37.46
2018-07-11T09:44:40.826Z,35.59
2018-07-11T09:47:13.889Z,35.37
2018-07-11T09:49:41.481Z,36.93
2018-07-11T09:52:09.107Z,36.85
2018-07-11T09:54:36.743Z,37.89
2018-07-11T09:57:04.426Z,37.31
2018-07-11T09:59:32.294Z,37.81
2018-07-11T10:01:59.977Z,38.50
2018-07-11T10:04:27.692Z,39.18
2018-07-11T10:06:55.366Z,37.68
2018-07-11T10:09:23.022Z,38.25
2018-07-11T10:11:50.746Z,38.06
2018-07-11T10:14:18.313Z,39.06
2018-07-11T10:16:45.862Z,38.28
2018-07-11T10:19:13.494Z,38.97
2018-07-11T10:21:41.108Z,37.78
2018-07-11T10:24:08.757Z,36.95
2018-07-11T10:26:36.300Z,37.65
2018-07-11T10:29:03.875Z,37.75
2018-07-11T10:31:31.404Z,37.13
2018-07-11T10:33:58.970Z,37.88
2018-07-11T10:36:26.587Z,37.68
2018-07-11T10:38:54.667Z,37.67
2018-07-11T10:41:22.248Z,38.19
2018-07-11T10:43:49.849Z,38.77
2018-07-11T10:46:17.502Z,39.11
2018-07-11T10:48:45.015Z,39.52
2018-07-11T10:51:12.602Z,39.74
2018-07-11T10:53:40.206Z,38.57
2018-07-11T10:56:07.747Z,38.76
2018-07-11T10:58:35.537Z,38.41
2018-07-11T11:01:05.698Z,38.37
2018-07-11T11:03:32.130Z,39.38
2018-07-11T11:05:59.735Z,39.52
2018-07-11T11:08:28.166Z,38.13
2018-07-11T11:10:55.800Z,39.17
2018-07-11T11:13:23.911Z,39.46
2018-07-11T11:15:52.172Z,37.84
2018-07-11T11:18:20.425Z,37.77
2018-07-11T11:20:49.329Z,37.56
2018-07-11T11:23:17.062Z,36.65
2018-07-11T11:25:44.681Z,37.38
2018-07-11T11:28:12.277Z,37.09
2018-07-11T11:30:39.855Z,36.80
2018-07-11T11:33:07.433Z,37.10
2018-07-11T11:35:35.041Z,38.01
2018-07-11T11:38:02.678Z,37.35
2018-07-11T11:40:30.298Z,37.99
2018-07-11T11:42:57.959Z,37.87
2018-07-11T11:45:25.558Z,37.49
2018-07-11T11:47:59.235Z,38.61
2018-07-11T11:50:27.593Z,37.79
2018-07-11T11:53:13.836Z,36.99
2018-07-11T11:55:41.598Z,35.88
2018-07-11T11:58:09.252Z,36.23
2018-07-11T12:00:36.842Z,35.47
2018-07-11T12:03:04.787Z,34.46
2018-07-11T12:05:32.417Z,34.40
2018-07-11T12:07:59.942Z,34.47
2018-07-11T12:10:27.499Z,35.00
2018-07-11T12:12:55.096Z,34.13
2018-07-11T12:15:22.662Z,28.95
2018-07-11T12:17:50.279Z,26.36
2018-07-11T12:20:17.824Z,24.80
2018-07-11T12:22:45.507Z,25.83
2018-07-11T12:25:13.099Z,27.91
2018-07-11T12:27:40.780Z,28.62
2018-07-11T12:30:08.308Z,28.48
2018-07-11T12:32:35.978Z,28.89
2018-07-11T12:35:03.631Z,29.64
2018-07-11T12:37:31.331Z,30.27
2018-07-11T12:39:58.943Z,30.90
2018-07-11T12:42:26.538Z,31.23
2018-07-11T12:44:54.157Z,32.00
2018-07-11T12:47:27.362Z,32.55
2018-07-11T12:49:55.046Z,32.40
2018-07-11T12:52:22.670Z,31.74
2018-07-11T12:54:50.346Z,30.88
2018-07-11T12:57:18.031Z,31.94
2018-07-11T12:59:46.174Z,33.49
2018-07-11T13:02:13.931Z,35.33
2018-07-11T13:04:41.627Z,37.34
2018-07-11T13:07:09.266Z,39.96
2018-07-11T13:09:37.026Z,41.34
2018-07-11T13:12:05.043Z,42.53
2018-07-11T13:14:32.566Z,43.89
2018-07-11T13:17:00.986Z,44.89
2018-07-11T13:19:28.551Z,46.23
2018-07-11T13:21:56.173Z,47.02
2018-07-11T13:24:23.742Z,47.43
2018-07-11T13:26:51.316Z,46.03
2018-07-11T13:29:18.902Z,47.23
2018-07-11T13:31:46.542Z,47.10
2018-07-11T13:34:14.184Z,47.41
2018-07-11T13:36:41.858Z,46.50
2018-07-11T13:39:15.246Z,45.30
2018-07-11T13:41:43.534Z,41.12
2018-07-11T13:44:11.208Z,38.22
2018-07-11T13:46:38.827Z,35.35
2018-07-11T13:49:06.691Z,35.80
2018-07-11T13:51:34.258Z,37.43
2018-07-11T13:54:01.926Z,39.78
2018-07-11T13:56:29.542Z,39.03
2018-07-11T13:58:57.778Z,38.87
2018-07-11T14:01:26.382Z,39.25
2018-07-11T14:03:54.070Z,42.14
2018-07-11T14:06:21.726Z,44.08
2018-07-11T14:08:49.529Z,45.53
2018-07-11T14:11:17.201Z,46.58
2018-07-11T14:13:44.955Z,47.69
2018-07-11T14:16:12.646Z,48.95
2018-07-11T14:18:40.342Z,49.79
2018-07-11T14:21:07.926Z,49.86
2018-07-11T14:23:37.856Z,50.01
2018-07-11T14:26:05.594Z,51.36
2018-07-11T14:28:33.698Z,52.07
2018-07-11T14:31:02.103Z,52.16
2018-07-11T14:33:31.079Z,51.48
2018-07-11T14:35:59.156Z,50.93
2018-07-11T14:38:27.783Z,49.58
2018-07-11T14:40:55.846Z,49.79
2018-07-11T14:43:23.534Z,49.50
2018-07-11T14:45:52.321Z,48.85
2018-07-11T14:48:20.218Z,48.35
2018-07-11T14:50:47.879Z,48.26
2018-07-11T14:53:15.519Z,47.44
2018-07-11T14:55:43.304Z,46.78
2018-07-11T14:58:10.985Z,46.25
2018-07-11T15:00:38.534Z,44.47
2018-07-11T15:03:06.134Z,44.91
2018-07-11T15:05:33.776Z,44.74
2018-07-11T15:08:01.455Z,44.91
2018-07-11T15:10:29.090Z,43.88
2018-07-11T15:12:56.681Z,44.10
2018-07-11T15:15:24.303Z,43.80
2018-07-11T15:17:51.894Z,42.59
2018-07-11T15:20:19.554Z,42.84
2018-07-11T15:22:47.226Z,42.88
2018-07-11T15:25:14.850Z,42.80
2018-07-11T15:27:42.459Z,42.45
2018-07-11T15:30:09.998Z,43.03
2018-07-11T15:32:37.767Z,43.70
2018-07-11T15:35:05.639Z,43.62
2018-07-11T15:37:33.280Z,43.56
2018-07-11T15:40:02.819Z,44.28
2018-07-11T15:42:30.728Z,44.62
2018-07-11T15:44:58.409Z,44.44
2018-07-11T15:47:27.436Z,44.91
2018-07-11T15:49:55.877Z,41.43
2018-07-11T15:52:24.791Z,40.39
2018-07-11T15:54:55.365Z,39.58
2018-07-11T15:57:33.319Z,39.41
2018-07-11T16:00:06.639Z,39.53
2018-07-11T16:02:39.064Z,40.73
2018-07-11T16:05:06.808Z,40.65
2018-07-11T16:07:34.797Z,40.94
2018-07-11T16:10:02.495Z,41.40
2018-07-11T16:12:30.118Z,42.28
2018-07-11T16:14:57.762Z,43.39
2018-07-11T16:17:25.345Z,43.89
2018-07-11T16:19:53.048Z,43.85
2018-07-11T16:22:21.209Z,42.40
2018-07-11T16:24:48.890Z,43.61
2018-07-11T16:27:16.592Z,44.24
2018-07-11T16:29:44.162Z,44.27
2018-07-11T16:32:11.817Z,44.46
2018-07-11T16:34:39.459Z,43.07
2018-07-11T16:37:07.081Z,43.17
2018-07-11T16:39:34.748Z,43.59
2018-07-11T16:42:03.839Z,42.63
2018-07-11T16:44:31.822Z,43.70
2018-07-11T16:47:00.891Z,44.19
2018-07-11T16:49:29.137Z,43.72
2018-07-11T16:51:57.598Z,43.99
2018-07-11T16:54:25.297Z,43.87
2018-07-11T16:56:52.962Z,43.64
2018-07-11T16:59:23.167Z,40.60
2018-07-11T17:01:59.230Z,41.16
2018-07-11T17:04:29.535Z,40.89
2018-07-11T17:06:57.206Z,39.30
2018-07-11T17:09:25.168Z,39.28
2018-07-11T17:11:52.855Z,39.13
2018-07-11T17:14:22.056Z,37.38
2018-07-11T17:16:59.939Z,38.09
2018-07-11T17:19:36.721Z,38.45
2018-07-11T17:22:04.922Z,39.10
2018-07-11T17:24:37.191Z,39.71
2018-07-11T17:27:04.842Z,40.32
2018-07-11T17:29:32.634Z,40.33
2018-07-11T17:32:03.810Z,39.56
2018-07-11T17:34:32.075Z,39.97
2018-07-11T17:37:01.625Z,40.17
2018-07-11T17:40:35.306Z,39.88
2018-07-11T17:43:02.990Z,40.00
2018-07-11T17:45:30.618Z,39.96
2018-07-11T17:48:11.192Z,40.98
2018-07-11T17:50:38.861Z,41.09
2018-07-11T17:53:09.974Z,40.89
2018-07-11T17:55:50.761Z,41.93
2018-07-11T17:58:20.041Z,41.63
2018-07-11T18:00:51.537Z,42.14
2018-07-11T18:05:34.662Z,42.90
2018-07-11T18:08:06.796Z,42.29
2018-07-11T18:10:52.594Z,43.95
2018-07-11T18:13:34.616Z,44.12
2018-07-11T18:16:51.589Z,44.49
2018-07-11T18:21:38.963Z,44.70
2018-07-11T18:26:24.627Z,45.95
2018-07-11T18:31:04.383Z,45.81
2018-07-11T18:33:48.543Z,47.54
2018-07-11T18:36:53.377Z,50.19
2018-07-11T18:39:27.515Z,51.05
2018-07-11T18:42:06.356Z,52.37
2018-07-11T18:44:45.952Z,51.79
2018-07-11T18:47:22.927Z,51.95
2018-07-11T18:52:06.690Z,52.41
2018-07-11T18:56:00.502Z,52.41
2018-07-11T18:59:36.911Z,53.00
2018-07-11T19:02:10.424Z,53.47
2018-07-11T19:05:20.445Z,53.78
2018-07-11T19:07:52.730Z,53.99
2018-07-11T19:11:31.090Z,53.19
2018-07-11T19:14:03.418Z,53.24
2018-07-11T19:18:49.846Z,53.27
2018-07-11T19:21:23.975Z,53.51
2018-07-11T19:24:01.449Z,53.96
2018-07-11T19:26:42.855Z,54.35
2018-07-11T19:29:45.856Z,54.04
2018-07-11T19:32:23.358Z,54.27
2018-07-11T19:34:59.738Z,54.01
2018-07-11T19:38:33.491Z,54.29
2018-07-11T19:41:23.558Z,55.10
2018-07-11T19:43:54.414Z,55.75
2018-07-11T19:46:31.390Z,55.66
2018-07-11T19:49:10.890Z,55.51
2018-07-11T19:51:49.295Z,55.73
2018-07-11T19:54:54.420Z,55.92
2018-07-11T19:57:22.512Z,56.05
2018-07-11T19:59:50.143Z,55.86
2018-07-11T20:02:17.745Z,55.89
2018-07-11T20:04:45.429Z,56.01
2018-07-11T20:07:13.106Z,55.71
2018-07-11T20:09:40.704Z,55.52
2018-07-11T20:12:08.338Z,56.00
2018-07-11T20:14:36.027Z,56.34
2018-07-11T20:17:03.618Z,56.29
2018-07-11T20:19:31.230Z,55.89
2018-07-11T20:21:58.889Z,56.55
2018-07-11T20:24:26.526Z,56.35
2018-07-11T20:26:54.237Z,56.54
2018-07-11T20:29:21.867Z,56.83
2018-07-11T20:31:49.442Z,56.54
2018-07-11T20:34:17.043Z,56.99
2018-07-11T20:36:44.689Z,56.87
2018-07-11T20:39:12.266Z,57.19
2018-07-11T20:41:39.946Z,56.94
2018-07-11T20:44:07.544Z,57.10
2018-07-11T20:46:35.228Z,57.12
2018-07-11T20:49:08.556Z,57.82
2018-07-11T20:51:36.114Z,57.65
2018-07-11T20:54:03.694Z,58.13
2018-07-11T20:56:31.343Z,58.66
2018-07-11T21:00:09.795Z,59.13
2018-07-11T21:02:48.587Z,59.31
2018-07-11T21:05:29.330Z,59.78
2018-07-11T21:08:10.302Z,59.76
2018-07-11T21:12:56.854Z,59.45
2018-07-11T21:15:50.617Z,60.15
2018-07-11T21:18:32.360Z,60.42
2018-07-11T21:20:59.907Z,60.82
2018-07-11T21:23:27.779Z,61.08
2018-07-11T21:25:55.358Z,60.78
2018-07-11T21:28:22.890Z,60.88
2018-07-11T21:30:50.434Z,61.09
2018-07-11T21:33:17.997Z,61.00
2018-07-11T21:35:45.597Z,61.17
2018-07-11T21:38:13.158Z,61.15
2018-07-11T21:40:40.758Z,61.30
2018-07-11T21:43:08.294Z,62.20
2018-07-11T21:45:35.882Z,62.28
2018-07-11T21:48:03.440Z,62.43
2018-07-11T21:50:31.015Z,62.77
2018-07-11T21:52:58.596Z,62.04
2018-07-11T21:55:26.197Z,62.63
2018-07-11T21:57:53.882Z,62.06
2018-07-11T22:00:32.611Z,62.04
2018-07-11T22:03:00.207Z,62.04
2018-07-11T22:05:28.897Z,62.44
2018-07-11T22:07:56.598Z,62.08
2018-07-11T22:10:24.190Z,62.06
2018-07-11T22:12:51.726Z,62.13
2018-07-11T22:15:19.336Z,62.25
2018-07-11T22:17:58.326Z,62.55
2018-07-11T22:20:24.718Z,62.58
2018-07-11T22:22:51.138Z,62.27
2018-07-11T22:25:17.523Z,62.23
2018-07-11T22:27:43.851Z,62.17
2018-07-11T22:30:10.178Z,62.53
2018-07-11T22:32:36.926Z,62.59
2018-07-11T22:35:03.262Z,62.63
2018-07-11T22:37:29.613Z,63.14
2018-07-11T22:39:55.952Z,62.96
2018-07-11T22:42:22.315Z,62.70
2018-07-11T22:44:48.689Z,62.74
2018-07-11T22:47:15.061Z,63.27
2018-07-11T22:49:45.905Z,63.51
2018-07-11T22:52:12.258Z,63.53
2018-07-11T22:54:38.603Z,63.49
2018-07-11T22:57:04.937Z,63.30
2018-07-11T22:59:31.330Z,63.20
2018-07-11T23:01:57.669Z,63.80
2018-07-11T23:04:24.058Z,63.79
2018-07-11T23:06:50.379Z,63.72
2018-07-11T23:09:16.701Z,63.67
2018-07-11T23:11:43.047Z,63.43
2018-07-11T23:14:09.382Z,63.28
2018-07-11T23:16:35.734Z,63.55
2018-07-11T23:19:02.065Z,63.27
2018-07-11T23:21:28.414Z,62.96
2018-07-11T23:23:54.758Z,63.09
2018-07-11T23:26:21.114Z,62.97
2018-07-11T23:28:47.447Z,63.38
2018-07-11T23:31:13.808Z,63.53
2018-07-11T23:33:40.134Z,63.48
2018-07-11T23:36:06.480Z,63.37
2018-07-11T23:38:32.841Z,63.73
2018-07-11T23:40:59.464Z,64.00
2018-07-11T23:43:25.822Z,64.05
2018-07-11T23:45:52.163Z,64.48
2018-07-11T23:48:18.505Z,64.47
2018-07-11T23:50:44.885Z,64.52
2018-07-11T23:53:11.222Z,64.63
2018-07-11T23:55:37.594Z,64.38
2018-07-11T23:58:03.923Z,64.86
